Aérodrome :
LOGIN :

S'inscrire | Disclaimer

   EN    FR    IT 

 










Légende :    VFR   VFR Marginal   IFR   IFR Intensif   IFR Très Intensif
Visi : 
Plafond : 
>= 8 km
>= 3000ft
5 à 8 km
1000 à 3000 ft
1500m à 5 km
500 à 1000 ft
800 à 1500m
200 à 500 ft
< 800m
< 200 ft
Symboles :   Orages  Brouillard  Fortes neiges  Fortes précipitations  Vent > 20 kt
SIGMETs :   Divers  Orages  Givrage  Turbulence  Onde Orograph.  Cendres Volcan.







- Altitude de l'aérodrome : 362 ft
- Code IATA : WAW


EPWA - Warsaw Okecie

DERNIER METAR :
  • 242330Z VRB02KT CAVOK 14/11 Q1011 NOSIG

METARs EXPIRÉS :
  • 242300Z VRB01KT CAVOK 14/12 Q1011 NOSIG
  • 242230Z 26002KT CAVOK 14/11 Q1011 NOSIG
  • 242200Z 28004KT CAVOK 13/11 Q1011 NOSIG
  • 242130Z 25005KT CAVOK 13/11 Q1011 NOSIG
  • 242100Z 24004KT CAVOK 13/11 Q1011 NOSIG

TAF TAF EPWA
Valide du 25 à 00h jusqu'au 26 à 00h UTC


242330Z 2500/2524 27004KT CAVOK
BECMG 2509/2512 29014KT
PROB40
TEMPO 2510/2517 30016G26KT SCT040TCU
Pas de NOTAMs connus pour ce terrain.



MET'MAP, la Météo Aéronautique d'un coup d'oeil ! - Copyright ORBIFLY Décembre 2007 - Disclaimer

ORBIFLY MET'MAP TEAM :

Programmation & Développement : Alexandra Zaïnal
Conception & Développement : Baudouin d'Aumeries
Co-Programmation & Développement : Marc-Olivier Méhu
Soutien technique & logistique : Manuel Goepfert

Contact : metmap@orbifly.com




SOURCES & CREDITS :

   NOAA